Time,TemperatureF,DewpointF,PressureIn,WindDirection,WindDirectionDegrees,WindSpeedMPH,WindSpeedGustMPH,Humidity,HourlyPrecipIn,Conditions,Clouds,dailyrainin,SolarRadiationWatts/m^2,SoftwareType,DateUTC
2013-04-29 00:32:00,66.0,8.0,-100.00,East,85,4.0,12.0,10,0.00,,,0.00,1.000000,,2013-04-29 07:32:00,
2013-04-29 01:21:00,68.0,9.0,-100.00,NW,326,9.0,17.0,10,0.00,,,0.00,1.000000,,2013-04-29 08:21:00,
2013-04-29 01:31:00,68.0,9.0,-100.00,NW,326,9.0,17.0,10,0.00,,,0.00,1.000000,,2013-04-29 08:31:00,
2013-04-29 01:42:00,68.0,9.0,-100.00,NW,326,9.0,17.0,10,0.00,,,0.00,1.000000,,2013-04-29 08:42:00,
2013-04-29 01:51:00,68.0,9.0,-100.00,NW,326,9.0,17.0,10,0.00,,,0.00,1.000000,,2013-04-29 08:51:00,
2013-04-29 02:21:00,65.0,18.0,-100.00,WSW,251,3.0,15.0,16,0.00,,,0.00,1.000000,,2013-04-29 09:21:00,
2013-04-29 02:32:00,65.0,18.0,-100.00,WSW,251,3.0,15.0,16,0.00,,,0.00,1.000000,,2013-04-29 09:32:00,
2013-04-29 02:42:00,65.0,18.0,-100.00,WSW,251,3.0,15.0,16,0.00,,,0.00,1.000000,,2013-04-29 09:42:00,
2013-04-29 02:52:00,65.0,18.0,-100.00,WSW,251,3.0,15.0,16,0.00,,,0.00,1.000000,,2013-04-29 09:52:00,
2013-04-29 03:32:00,65.0,13.0,-100.00,WNW,286,6.0,12.0,13,0.00,,,0.00,1.000000,,2013-04-29 10:32:00,
2013-04-29 03:42:00,65.0,13.0,-100.00,WNW,286,6.0,12.0,13,0.00,,,0.00,1.000000,,2013-04-29 10:42:00,
2013-04-29 03:52:00,65.0,13.0,-100.00,WNW,286,6.0,12.0,13,0.00,,,0.00,1.000000,,2013-04-29 10:52:00,
2013-04-29 04:21:00,65.0,15.0,-100.00,WNW,283,5.0,10.0,14,0.00,,,0.00,1.000000,,2013-04-29 11:21:00,
2013-04-29 04:32:00,65.0,15.0,-100.00,WNW,283,5.0,10.0,14,0.00,,,0.00,1.000000,,2013-04-29 11:32:00,
2013-04-29 04:41:00,65.0,15.0,-100.00,WNW,283,5.0,10.0,14,0.00,,,0.00,1.000000,,2013-04-29 11:41:00,
2013-04-29 04:52:00,65.0,15.0,-100.00,WNW,283,5.0,10.0,14,0.00,,,0.00,1.000000,,2013-04-29 11:52:00,
2013-04-29 05:22:00,65.0,13.0,-100.00,West,259,4.0,8.0,13,0.00,,,0.00,1.000000,,2013-04-29 12:22:00,
2013-04-29 05:31:00,65.0,13.0,-100.00,West,259,4.0,8.0,13,0.00,,,0.00,1.000000,,2013-04-29 12:31:00,
2013-04-29 05:41:00,65.0,13.0,-100.00,West,259,4.0,8.0,13,0.00,,,0.00,1.000000,,2013-04-29 12:41:00,
2013-04-29 05:51:00,65.0,13.0,-100.00,West,259,4.0,8.0,13,0.00,,,0.00,1.000000,,2013-04-29 12:51:00,
2013-04-29 06:21:00,64.0,14.0,-100.00,West,269,3.0,6.0,14,0.00,,,0.00,1.000000,,2013-04-29 13:21:00,
2013-04-29 06:31:00,64.0,14.0,-100.00,West,269,3.0,6.0,14,0.00,,,0.00,1.000000,,2013-04-29 13:31:00,
2013-04-29 06:42:00,64.0,14.0,-100.00,West,269,3.0,6.0,14,0.00,,,0.00,1.000000,,2013-04-29 13:42:00,
2013-04-29 06:52:00,64.0,14.0,-100.00,West,269,3.0,6.0,14,0.00,,,0.00,1.000000,,2013-04-29 13:52:00,
2013-04-29 07:21:00,66.0,14.0,-100.00,West,277,4.0,6.0,13,0.00,,,0.00,46.000000,,2013-04-29 14:21:00,
2013-04-29 07:32:00,66.0,14.0,-100.00,West,277,4.0,6.0,13,0.00,,,0.00,46.000000,,2013-04-29 14:32:00,
2013-04-29 07:42:00,66.0,14.0,-100.00,West,277,4.0,6.0,13,0.00,,,0.00,46.000000,,2013-04-29 14:42:00,
2013-04-29 07:51:00,66.0,14.0,-100.00,West,277,4.0,6.0,13,0.00,,,0.00,46.000000,,2013-04-29 14:51:00,
2013-04-29 08:33:00,70.0,17.0,-100.00,NW,311,2.0,7.0,13,0.00,,,0.00,244.000000,,2013-04-29 15:33:00,
2013-04-29 08:42:00,70.0,17.0,-100.00,NW,311,2.0,7.0,13,0.00,,,0.00,244.000000,,2013-04-29 15:42:00,
2013-04-29 08:52:00,70.0,17.0,-100.00,NW,311,2.0,7.0,13,0.00,,,0.00,244.000000,,2013-04-29 15:52:00,
2013-04-29 09:32:00,72.0,20.0,-100.00,SSE,168,4.0,6.0,14,0.00,,,0.00,531.000000,,2013-04-29 16:32:00,
2013-04-29 09:42:00,72.0,20.0,-100.00,SSE,168,4.0,6.0,14,0.00,,,0.00,531.000000,,2013-04-29 16:42:00,
2013-04-29 09:52:00,72.0,20.0,-100.00,SSE,168,4.0,6.0,14,0.00,,,0.00,531.000000,,2013-04-29 16:52:00,
2013-04-29 10:32:00,75.0,23.0,-100.00,SSE,157,7.0,11.0,14,0.00,,,0.00,718.000000,,2013-04-29 17:32:00,
2013-04-29 10:42:00,75.0,23.0,-100.00,SSE,157,7.0,11.0,14,0.00,,,0.00,718.000000,,2013-04-29 17:42:00,
2013-04-29 10:52:00,75.0,23.0,-100.00,SSE,157,7.0,11.0,14,0.00,,,0.00,718.000000,,2013-04-29 17:52:00,
2013-04-29 11:22:00,77.0,22.0,-100.00,South,178,8.0,12.0,13,0.00,,,0.00,568.000000,,2013-04-29 18:22:00,
2013-04-29 11:31:00,77.0,22.0,-100.00,South,178,8.0,12.0,13,0.00,,,0.00,568.000000,,2013-04-29 18:31:00,
2013-04-29 11:42:00,77.0,22.0,-100.00,South,178,8.0,12.0,13,0.00,,,0.00,568.000000,,2013-04-29 18:42:00,
2013-04-29 11:51:00,77.0,22.0,-100.00,South,178,8.0,12.0,13,0.00,,,0.00,568.000000,,2013-04-29 18:51:00,
2013-04-29 12:21:00,79.0,26.0,-100.00,South,183,11.0,15.0,14,0.00,,,0.00,598.000000,,2013-04-29 19:21:00,
2013-04-29 12:31:00,79.0,26.0,-100.00,South,183,11.0,15.0,14,0.00,,,0.00,598.000000,,2013-04-29 19:31:00,
2013-04-29 12:41:00,79.0,26.0,-100.00,South,183,11.0,15.0,14,0.00,,,0.00,598.000000,,2013-04-29 19:41:00,
2013-04-29 12:52:00,79.0,26.0,-100.00,South,183,11.0,15.0,14,0.00,,,0.00,598.000000,,2013-04-29 19:52:00,
2013-04-29 13:32:00,80.0,28.0,-100.00,South,181,11.0,17.0,15,0.00,,,0.00,1142.000000,,2013-04-29 20:32:00,
2013-04-29 13:42:00,80.0,28.0,-100.00,South,181,11.0,17.0,15,0.00,,,0.00,1142.000000,,2013-04-29 20:42:00,
2013-04-29 13:52:00,80.0,28.0,-100.00,South,181,11.0,17.0,15,0.00,,,0.00,1142.000000,,2013-04-29 20:52:00,
2013-04-29 14:21:00,81.0,31.0,-100.00,South,180,13.0,19.0,16,0.00,,,0.00,1136.000000,,2013-04-29 21:21:00,
2013-04-29 14:33:00,81.0,31.0,-100.00,South,180,13.0,19.0,16,0.00,,,0.00,1136.000000,,2013-04-29 21:33:00,
2013-04-29 14:42:00,81.0,31.0,-100.00,South,180,13.0,19.0,16,0.00,,,0.00,1136.000000,,2013-04-29 21:42:00,
2013-04-29 14:53:00,81.0,31.0,-100.00,South,180,13.0,19.0,16,0.00,,,0.00,1136.000000,,2013-04-29 21:53:00,
2013-04-29 15:32:00,80.0,38.0,-100.00,South,179,15.0,22.0,22,0.00,,,0.00,1054.000000,,2013-04-29 22:32:00,
2013-04-29 15:42:00,80.0,38.0,-100.00,South,179,15.0,22.0,22,0.00,,,0.00,1054.000000,,2013-04-29 22:42:00,
2013-04-29 15:52:00,80.0,38.0,-100.00,South,179,15.0,22.0,22,0.00,,,0.00,1054.000000,,2013-04-29 22:52:00,
2013-04-29 16:22:00,77.0,41.0,-100.00,South,183,17.0,25.0,28,0.00,,,0.00,907.000000,,2013-04-29 23:22:00,
2013-04-29 16:32:00,77.0,41.0,-100.00,South,183,17.0,25.0,28,0.00,,,0.00,907.000000,,2013-04-29 23:32:00,
2013-04-29 16:42:00,77.0,41.0,-100.00,South,183,17.0,25.0,28,0.00,,,0.00,907.000000,,2013-04-29 23:42:00,
2013-04-29 16:52:00,77.0,41.0,-100.00,South,183,17.0,25.0,28,0.00,,,0.00,907.000000,,2013-04-29 23:52:00,
2013-04-29 17:32:00,73.0,44.0,-100.00,South,186,16.0,24.0,35,0.00,,,0.00,697.000000,,2013-04-30 00:32:00,
2013-04-29 17:41:00,73.0,44.0,-100.00,South,186,16.0,24.0,35,0.00,,,0.00,697.000000,,2013-04-30 00:41:00,
2013-04-29 17:51:00,73.0,44.0,-100.00,South,186,16.0,24.0,35,0.00,,,0.00,697.000000,,2013-04-30 00:51:00,
2013-04-29 19:21:00,65.0,45.0,-100.00,SSW,198,11.0,19.0,49,-99.99,,,0.00,210.000000,,2013-04-30 02:21:00,
2013-04-29 19:31:00,65.0,45.0,-100.00,SSW,198,11.0,19.0,49,-99.99,,,0.00,210.000000,,2013-04-30 02:31:00,
2013-04-29 19:41:00,65.0,45.0,-100.00,SSW,198,11.0,19.0,49,-99.99,,,0.00,210.000000,,2013-04-30 02:41:00,
2013-04-29 19:51:00,65.0,45.0,-100.00,SSW,198,11.0,19.0,49,-99.99,,,0.00,210.000000,,2013-04-30 02:51:00,
2013-04-29 20:21:00,60.0,47.0,-100.00,SSW,202,9.0,14.0,63,0.00,,,0.00,22.000000,,2013-04-30 03:21:00,
2013-04-29 20:33:00,60.0,47.0,-100.00,SSW,202,9.0,14.0,63,0.00,,,0.00,22.000000,,2013-04-30 03:33:00,
2013-04-29 20:42:00,60.0,47.0,-100.00,SSW,202,9.0,14.0,63,0.00,,,0.00,22.000000,,2013-04-30 03:42:00,
2013-04-29 20:52:00,60.0,47.0,-100.00,SSW,202,9.0,14.0,63,0.00,,,0.00,22.000000,,2013-04-30 03:52:00,
2013-04-29 23:21:00,58.0,43.0,-100.00,SSW,203,9.0,15.0,57,-99.99,,,0.00,1.000000,,2013-04-30 06:21:00,
2013-04-29 23:31:00,58.0,43.0,-100.00,SSW,203,9.0,15.0,57,-99.99,,,0.00,1.000000,,2013-04-30 06:31:00,
2013-04-29 23:41:00,58.0,43.0,-100.00,SSW,203,9.0,15.0,57,-99.99,,,0.00,1.000000,,2013-04-30 06:41:00,
2013-04-29 23:52:00,58.0,43.0,-100.00,SSW,203,9.0,15.0,57,-99.99,,,0.00,1.000000,,2013-04-30 06:52:00,